Time;durP1;ratioP1;P1;durP2;ratioP2;P2;SDS_P1;SDS_P2;PMS_P1;PMS_P2;Temp;Humidity;BMP_temperature;BMP_pressure;BME280_temperature;BME280_humidity;BME280_pressure;Samples;Min_cycle;Max_cycle;Signal;HPM_P1;HPM_P2
2023/05/08 00:00:31;;;;;;;15.23;7.45;;;;;;;12.32;74.07;98443.50;4441198;32;20427;-80
2023/05/08 00:02:58;;;;;;;16.17;8.20;;;;;;;12.49;72.93;98435.84;4440904;32;20116;-80
2023/05/08 00:05:25;;;;;;;15.27;7.35;;;;;;;12.74;71.66;98427.81;4441179;32;20508;-80
2023/05/08 00:07:59;;;;;;;15.18;6.32;;;;;;;12.23;74.45;98428.38;4440566;32;20081;-81
2023/05/08 00:10:27;;;;;;;15.30;7.62;;;;;;;11.99;74.95;98436.28;4427806;32;20104;-80
2023/05/08 00:12:55;;;;;;;16.58;8.00;;;;;;;11.71;77.03;98433.16;4440964;32;20116;-80
2023/05/08 00:15:22;;;;;;;16.75;7.78;;;;;;;12.39;74.71;98432.81;4441096;32;20407;-80
2023/05/08 00:17:48;;;;;;;15.00;7.53;;;;;;;12.23;74.81;98436.13;4440686;32;20151;-80
2023/05/08 00:20:15;;;;;;;17.48;8.18;;;;;;;12.11;75.73;98434.91;4440972;32;20085;-80
2023/05/08 00:22:42;;;;;;;16.58;7.95;;;;;;;12.25;74.97;98448.13;4440903;32;20097;-80
2023/05/08 00:25:09;;;;;;;16.70;8.38;;;;;;;12.13;75.70;98441.72;4440655;32;20112;-80
2023/05/08 00:27:36;;;;;;;16.98;7.90;;;;;;;11.16;79.49;98448.25;4440983;32;20089;-81
2023/05/08 00:30:04;;;;;;;16.55;8.32;;;;;;;11.88;76.74;98446.22;4441029;32;20589;-80
2023/05/08 00:32:31;;;;;;;14.90;6.45;;;;;;;11.91;76.26;98438.37;4440358;32;20144;-81
2023/05/08 00:34:58;;;;;;;16.12;7.62;;;;;;;12.34;74.78;98446.87;4441043;32;20085;-81
2023/05/08 00:37:25;;;;;;;16.02;7.00;;;;;;;12.49;73.40;98463.47;4440893;32;20138;-81
2023/05/08 00:39:52;;;;;;;16.70;7.97;;;;;;;12.11;75.57;98453.84;4440442;32;20135;-81
2023/05/08 00:42:18;;;;;;;;;;;;;;;12.56;73.26;98459.72;4441269;32;20471;-81
2023/05/08 00:44:45;;;;;;;16.77;7.75;;;;;;;13.01;71.55;98452.47;4441007;32;20041;-80
2023/05/08 00:47:12;;;;;;;15.77;7.70;;;;;;;12.61;73.71;98458.59;4440400;32;20081;-81
2023/05/08 00:49:39;;;;;;;15.95;7.68;;;;;;;13.26;71.22;98453.94;4427028;32;20077;-81
2023/05/08 00:52:09;;;;;;;16.35;7.75;;;;;;;13.88;68.50;98450.91;4440393;32;20132;-81
2023/05/08 00:54:37;;;;;;;14.87;7.37;;;;;;;14.75;64.65;98453.37;4440848;32;20436;-81
2023/05/08 00:57:07;;;;;;;15.43;7.95;;;;;;;14.99;62.32;98448.63;4440818;32;20547;-81
2023/05/08 00:59:35;;;;;;;17.17;8.20;;;;;;;14.50;64.18;98460.78;4440419;32;20100;-81
2023/05/08 01:02:03;;;;;;;16.35;8.15;;;;;;;14.36;64.72;98462.31;4426957;32;20171;-81
2023/05/08 01:04:30;;;;;;;16.37;7.70;;;;;;;14.72;63.05;98458.75;4440760;32;20111;-81
2023/05/08 01:06:57;;;;;;;15.73;7.53;;;;;;;15.29;60.68;98459.94;4440387;32;20109;-81
2023/05/08 01:09:24;;;;;;;15.68;7.90;;;;;;;15.26;60.06;98465.31;4440669;32;20457;-81
2023/05/08 01:12:16;;;;;;;17.05;8.35;;;;;;;15.47;59.28;98473.69;4440506;32;20124;-81
2023/05/08 01:14:57;;;;;;;15.63;7.95;;;;;;;15.34;58.93;98478.75;4426645;32;20097;-81
2023/05/08 01:17:49;;;;;;;15.60;7.70;;;;;;;15.45;57.88;98472.94;4440727;32;20100;-81
2023/05/08 01:21:01;;;;;;;13.95;7.35;;;;;;;15.81;56.97;98477.88;4439828;32;20518;-81
2023/05/08 01:23:40;;;;;;;14.73;7.20;;;;;;;15.54;57.40;98471.59;4372977;32;20188;-81
2023/05/08 01:26:10;;;;;;;15.55;7.28;;;;;;;16.20;55.09;98481.69;4440707;32;20154;-81
2023/05/08 01:28:59;;;;;;;14.65;7.28;;;;;;;16.76;52.80;98486.16;4440138;32;20112;-81
2023/05/08 01:32:03;;;;;;;14.35;7.20;;;;;;;16.97;51.50;98481.38;4440489;32;20420;-81
2023/05/08 01:34:32;;;;;;;18.60;7.95;;;;;;;16.98;51.27;98477.00;4440174;32;20101;-81
2023/05/08 01:37:02;;;;;;;15.43;7.47;;;;;;;16.08;53.69;98492.84;4426690;32;20174;-81
2023/05/08 01:39:38;;;;;;;17.25;8.20;;;;;;;15.58;55.52;98489.53;4440278;32;20090;-81
2023/05/08 01:42:34;;;;;;;16.83;7.37;;;;;;;15.53;55.47;98491.56;4439914;32;20104;-81
2023/05/08 01:45:11;;;;;;;14.45;7.12;;;;;;;15.31;55.76;98496.25;4431815;32;20111;-81
2023/05/08 01:47:40;;;;;;;15.88;8.20;;;;;;;15.97;54.17;98490.84;4440438;32;20435;-81
2023/05/08 01:50:21;;;;;;;15.52;7.72;;;;;;;16.21;52.06;98493.78;4426129;32;20105;-81
2023/05/08 01:52:50;;;;;;;19.55;7.40;;;;;;;16.26;51.81;98498.72;4440148;32;20077;-81
2023/05/08 01:55:26;;;;;;;14.75;7.10;;;;;;;16.38;51.12;98498.84;4426136;32;20101;-81
2023/05/08 01:57:54;;;;;;;17.95;7.70;;;;;;;15.99;52.34;98493.34;4440283;32;20118;-81
2023/05/08 02:00:23;;;;;;;13.55;7.18;;;;;;;16.15;51.55;98504.53;4440170;32;20085;-81
2023/05/08 02:02:51;;;;;;;15.63;7.65;;;;;;;16.07;51.33;98501.56;4439763;32;20140;-81
2023/05/08 02:05:20;;;;;;;16.55;8.02;;;;;;;16.01;51.87;98502.75;4426313;32;20537;-81
2023/05/08 02:07:48;;;;;;;14.63;7.37;;;;;;;15.70;52.55;98501.03;4426306;32;20169;-81
2023/05/08 02:10:16;;;;;;;16.85;7.70;;;;;;;15.48;52.84;98500.53;4439736;32;20745;-81
2023/05/08 02:12:43;;;;;;;14.82;7.30;;;;;;;14.99;54.97;98503.19;4426036;32;20104;-81
2023/05/08 02:15:12;;;;;;;15.15;7.22;;;;;;;15.06;54.73;98491.56;4439922;32;20415;-81
2023/05/08 02:17:40;;;;;;;15.18;7.37;;;;;;;15.33;54.28;98503.06;4425725;32;20123;-81
2023/05/08 02:20:13;;;;;;;17.90;7.60;;;;;;;14.79;55.88;98504.28;4413489;32;20104;-81
2023/05/08 02:22:45;;;;;;;15.93;7.75;;;;;;;14.48;56.78;98497.22;4439871;32;20081;-81
2023/05/08 02:25:13;;;;;;;17.62;8.23;;;;;;;14.14;58.61;98498.03;4425587;32;20380;-81
2023/05/08 02:27:45;;;;;;;16.83;8.18;;;;;;;13.54;61.29;98500.13;4426151;32;20113;-81
2023/05/08 02:30:14;;;;;;;15.07;7.60;;;;;;;14.05;59.76;98495.94;4427221;32;20103;-81
2023/05/08 02:32:42;;;;;;;16.08;7.90;;;;;;;14.90;56.45;98503.72;4441190;32;20078;-81
2023/05/08 02:35:19;;;;;;;15.50;8.00;;;;;;;14.84;56.19;98507.44;4427871;32;20116;-81
2023/05/08 02:37:50;;;;;;;16.17;7.53;;;;;;;14.57;56.46;98514.06;4441513;32;20088;-80
2023/05/08 02:40:17;;;;;;;15.85;7.80;;;;;;;14.94;55.46;98507.81;4428026;32;20104;-81
2023/05/08 02:42:45;;;;;;;16.62;8.27;;;;;;;14.55;56.86;98511.56;4441600;32;20100;-81
2023/05/08 02:45:13;;;;;;;16.35;7.97;;;;;;;13.55;59.97;98507.00;4441145;32;20093;-81
2023/05/08 02:48:00;;;;;;;18.27;9.00;;;;;;;13.48;61.34;98510.78;4441746;32;20132;-81
2023/05/08 02:50:58;;;;;;;17.15;7.97;;;;;;;14.28;58.44;98511.19;4427883;32;20180;-80
2023/05/08 02:53:39;;;;;;;16.23;7.40;;;;;;;14.69;55.94;98508.28;4441312;32;20077;-81
2023/05/08 02:56:13;;;;;;;18.33;8.10;;;;;;;14.58;56.38;98505.38;4427830;32;20110;-81
2023/05/08 02:58:47;;;;;;;17.05;8.32;;;;;;;15.19;54.66;98508.16;4441245;32;20093;-81
2023/05/08 03:01:25;;;;;;;17.42;8.10;;;;;;;14.89;55.14;98515.84;4441661;32;20142;-81
2023/05/08 03:04:00;;;;;;;18.50;8.48;;;;;;;15.01;54.02;98510.00;4427816;32;20081;-81
2023/05/08 03:06:34;;;;;;;17.52;7.37;;;;;;;14.97;54.28;98513.66;4441287;32;20089;-81
2023/05/08 03:09:02;;;;;;;17.40;8.43;;;;;;;15.48;52.22;98514.37;4441634;32;20564;-81
2023/05/08 03:11:36;;;;;;;17.00;7.85;;;;;;;14.92;53.45;98518.28;4427609;32;20120;-81
2023/05/08 03:14:05;;;;;;;19.87;7.78;;;;;;;14.57;54.71;98521.84;4427250;32;20073;-81
2023/05/08 03:16:34;;;;;;;16.92;8.45;;;;;;;14.54;54.84;98525.47;4427521;32;20158;-80
2023/05/08 03:19:04;;;;;;;15.85;7.90;;;;;;;14.57;54.85;98529.66;4427605;32;20135;-81
2023/05/08 03:21:31;;;;;;;17.17;7.90;;;;;;;14.62;54.77;98525.06;4427295;32;20086;-80
2023/05/08 03:23:59;;;;;;;16.67;7.57;;;;;;;14.56;54.83;98530.56;4427492;32;20155;-80
2023/05/08 03:26:26;;;;;;;18.62;8.70;;;;;;;14.34;55.69;98523.00;4427508;32;20117;-81
2023/05/08 03:28:55;;;;;;;17.30;8.65;;;;;;;13.95;56.35;98531.03;4441387;32;20121;-81
2023/05/08 03:31:23;;;;;;;17.48;7.82;;;;;;;13.90;56.62;98526.88;4441196;32;20085;-81
2023/05/08 03:33:52;;;;;;;18.05;8.77;;;;;;;13.92;56.93;98532.00;4427109;32;20145;-81
2023/05/08 03:36:20;;;;;;;19.85;8.75;;;;;;;14.05;56.80;98525.31;4441271;32;20093;-81
2023/05/08 03:38:47;;;;;;;19.65;8.80;;;;;;;14.06;56.84;98526.16;4441222;32;20085;-81
2023/05/08 03:41:14;;;;;;;18.20;8.73;;;;;;;14.18;56.31;98523.78;4426448;32;20468;-81
2023/05/08 03:43:41;;;;;;;20.15;8.55;;;;;;;14.67;54.72;98528.25;4427383;32;20085;-81
2023/05/08 03:46:09;;;;;;;18.75;8.85;;;;;;;14.47;55.89;98531.91;4427174;32;20100;-81
2023/05/08 03:48:36;;;;;;;17.33;8.63;;;;;;;14.58;56.11;98527.00;4427040;32;20119;-81
2023/05/08 03:51:04;;;;;;;18.92;9.20;;;;;;;14.78;56.48;98533.78;4427425;32;20093;-81
2023/05/08 03:53:32;;;;;;;17.60;9.27;;;;;;;15.15;55.87;98532.66;4427210;32;20077;-81
2023/05/08 03:55:59;;;;;;;22.20;8.75;;;;;;;15.54;53.98;98537.47;4426990;32;20500;-81
2023/05/08 03:58:43;;;;;;;16.58;8.45;;;;;;;16.06;52.33;98544.97;4441231;32;20424;-81
2023/05/08 04:01:24;;;;;;;17.20;8.50;;;;;;;16.46;49.90;98546.09;4441219;32;20158;-81
2023/05/08 04:04:13;;;;;;;18.33;9.10;;;;;;;17.38;47.08;98548.38;4426935;32;20077;-81
2023/05/08 04:06:49;;;;;;;15.45;8.45;;;;;;;17.49;45.74;98552.94;4427370;32;20157;-81
2023/05/08 04:09:27;;;;;;;17.23;9.07;;;;;;;18.23;43.84;98554.31;4440803;32;20558;-81
2023/05/08 04:12:04;;;;;;;17.12;8.35;;;;;;;18.29;43.74;98554.75;4427211;32;20107;-81
2023/05/08 04:14:37;;;;;;;16.15;8.32;;;;;;;18.19;43.83;98546.69;4441109;32;20376;-81
2023/05/08 04:17:06;;;;;;;17.10;8.35;;;;;;;18.55;43.05;98567.84;4426910;32;20124;-81
2023/05/08 04:19:38;;;;;;;14.85;8.70;;;;;;;18.98;42.04;98558.78;4441019;32;20112;-81
2023/05/08 04:22:06;;;;;;;14.25;7.57;;;;;;;19.42;41.33;98559.25;4441156;32;20089;-81
2023/05/08 04:24:36;;;;;;;16.02;8.05;;;;;;;20.00;39.81;98565.59;4426828;32;20561;-81
2023/05/08 04:27:03;;;;;;;14.60;7.62;;;;;;;20.33;38.58;98565.72;4441003;32;20101;-81
2023/05/08 04:29:31;;;;;;;13.10;7.00;;;;;;;20.07;39.45;98577.25;4440915;32;20377;-81
2023/05/08 04:31:59;;;;;;;14.20;7.50;;;;;;;20.36;38.88;98580.38;4440467;32;20358;-81
2023/05/08 04:34:28;;;;;;;15.00;8.20;;;;;;;20.62;38.74;98576.66;4427141;32;20111;-81
2023/05/08 04:36:55;;;;;;;13.70;7.68;;;;;;;21.06;37.88;98583.78;4440597;32;20097;-81
2023/05/08 04:39:22;;;;;;;14.65;8.20;;;;;;;21.46;36.60;98587.72;4440855;32;20415;-81
2023/05/08 04:41:51;;;;;;;15.30;7.28;;;;;;;22.23;35.40;98584.13;4440813;32;20085;-81
2023/05/08 04:44:18;;;;;;;13.43;7.32;;;;;;;22.44;34.59;98583.31;4440562;32;20093;-81
2023/05/08 04:46:45;;;;;;;15.60;7.90;;;;;;;22.45;34.68;98577.94;4440632;32;20117;-82
2023/05/08 04:49:11;;;;;;;13.65;7.97;;;;;;;21.98;35.24;98588.81;4440845;32;20093;-82
2023/05/08 04:51:38;;;;;;;14.25;7.55;;;;;;;21.86;35.31;98590.66;4440373;32;20082;-81
2023/05/08 04:54:05;;;;;;;14.73;7.10;;;;;;;20.59;37.58;98582.13;4440617;32;20077;-81
2023/05/08 04:56:32;;;;;;;12.98;6.87;;;;;;;21.53;35.90;98588.94;4440795;32;20097;-81
2023/05/08 04:58:59;;;;;;;13.48;7.28;;;;;;;20.74;37.03;98588.03;4440536;32;20487;-81
2023/05/08 05:01:26;;;;;;;14.38;7.12;;;;;;;19.90;38.70;98589.81;4440883;32;20082;-81
2023/05/08 05:03:53;;;;;;;12.85;6.72;;;;;;;20.35;38.52;98599.66;4440704;32;20154;-81
2023/05/08 05:06:20;;;;;;;14.93;6.95;;;;;;;20.09;38.56;98597.16;4440355;32;20085;-81
2023/05/08 05:08:46;;;;;;;13.18;6.30;;;;;;;21.25;37.28;98598.06;4440739;32;20429;-81
2023/05/08 05:11:13;;;;;;;13.27;6.97;;;;;;;21.81;36.00;98606.78;4440706;32;20136;-82
2023/05/08 05:13:40;;;;;;;13.13;6.60;;;;;;;21.67;35.31;98607.03;4440248;32;20432;-81
2023/05/08 05:16:07;;;;;;;13.80;7.15;;;;;;;20.94;36.97;98600.44;4440672;32;20108;-82
2023/05/08 05:18:34;;;;;;;11.45;6.37;;;;;;;20.17;38.23;98596.59;4440577;32;20120;-81
2023/05/08 05:21:02;;;;;;;13.25;6.22;;;;;;;20.51;37.92;98598.44;4440419;32;20077;-81
2023/05/08 05:23:29;;;;;;;12.10;6.45;;;;;;;21.23;36.77;98603.44;4440516;32;20141;-82
2023/05/08 05:25:56;;;;;;;12.25;6.57;;;;;;;21.53;36.18;98602.06;4440299;32;20108;-82
2023/05/08 05:28:23;;;;;;;12.65;6.62;;;;;;;21.12;36.84;98600.00;4440542;32;20097;-82
2023/05/08 05:30:50;;;;;;;11.45;5.68;;;;;;;21.05;37.06;98602.22;4440536;32;20089;-82
2023/05/08 05:33:17;;;;;;;13.38;6.50;;;;;;;19.31;39.15;98599.25;4440112;32;20081;-82
2023/05/08 05:35:44;;;;;;;11.95;5.95;;;;;;;18.97;40.44;98605.97;4440509;32;20097;-82
2023/05/08 05:38:11;;;;;;;12.52;5.65;;;;;;;19.47;39.81;98606.87;4440351;32;20365;-82
2023/05/08 05:40:38;;;;;;;11.73;5.53;;;;;;;20.13;38.34;98606.47;4440168;32;20127;-82
2023/05/08 05:43:05;;;;;;;11.73;5.85;;;;;;;19.82;38.98;98615.72;4440310;32;20076;-82
2023/05/08 05:45:31;;;;;;;12.48;6.45;;;;;;;21.09;37.17;98616.81;4440177;32;20801;-82
2023/05/08 05:47:59;;;;;;;11.65;6.40;;;;;;;21.55;36.64;98629.00;4439933;32;20158;-82
2023/05/08 05:50:26;;;;;;;13.98;6.82;;;;;;;21.46;36.56;98620.06;4440403;32;20100;-82
2023/05/08 05:52:56;;;;;;;13.80;6.22;;;;;;;22.16;35.46;98616.28;4440052;32;20077;-82
2023/05/08 05:55:23;;;;;;;12.80;6.05;;;;;;;22.26;35.11;98625.09;4426059;32;20101;-82
2023/05/08 05:57:50;;;;;;;11.88;6.22;;;;;;;22.36;34.70;98625.19;4440474;32;20105;-82
2023/05/08 06:00:17;;;;;;;12.75;6.30;;;;;;;21.72;36.15;98630.31;4440286;32;20089;-83
2023/05/08 06:02:44;;;;;;;12.18;6.43;;;;;;;22.11;35.12;98628.94;4425760;32;20230;-83
2023/05/08 06:05:11;;;;;;;12.05;6.12;;;;;;;22.95;34.12;98637.81;4439303;32;20145;-82
2023/05/08 06:07:38;;;;;;;11.30;5.57;;;;;;;23.41;33.17;98632.13;4440033;32;20141;-83
2023/05/08 06:10:06;;;;;;;12.13;6.25;;;;;;;23.01;33.96;98630.25;4439674;32;20093;-83
2023/05/08 06:12:33;;;;;;;11.77;5.60;;;;;;;22.73;34.19;98636.09;4441666;32;20151;-84
2023/05/08 06:15:00;;;;;;;11.30;5.65;;;;;;;22.55;34.33;98635.84;4447157;32;20062;-83
2023/05/08 06:17:27;;;;;;;11.60;5.65;;;;;;;22.76;33.47;98627.97;4446852;32;20146;-81
2023/05/08 06:19:54;;;;;;;11.02;5.80;;;;;;;23.03;33.21;98630.09;4483256;26;20079;-83
2023/05/08 06:22:23;;;;;;;10.68;5.90;;;;;;;20.21;38.89;98625.09;4454332;32;20058;-84
2023/05/08 06:24:53;;;;;;;10.93;5.28;;;;;;;20.78;38.49;98627.00;4451010;32;20066;-83
2023/05/08 06:27:21;;;;;;;11.32;5.53;;;;;;;21.47;36.68;98637.47;4440925;32;20104;-83
2023/05/08 06:29:51;;;;;;;11.07;5.40;;;;;;;21.97;34.72;98634.44;4444296;32;20093;-83
2023/05/08 06:32:19;;;;;;;11.93;6.25;;;;;;;20.43;38.29;98634.88;4442286;32;20145;-83
2023/05/08 06:34:46;;;;;;;10.93;5.50;;;;;;;21.21;37.47;98643.91;4440352;32;20148;-83
2023/05/08 06:37:13;;;;;;;11.20;5.43;;;;;;;22.39;36.15;98635.44;4440331;32;20452;-82
2023/05/08 06:39:40;;;;;;;10.23;4.87;;;;;;;22.58;34.77;98640.03;4442191;32;20372;-83
2023/05/08 06:42:07;;;;;;;9.55;4.80;;;;;;;22.02;35.86;98643.66;4442020;32;20085;-83
2023/05/08 06:44:35;;;;;;;10.23;4.90;;;;;;;23.15;33.84;98631.69;4440544;32;20097;-82
2023/05/08 06:47:02;;;;;;;10.82;5.43;;;;;;;23.50;33.03;98639.22;4442986;32;20116;-83
2023/05/08 06:49:29;;;;;;;11.02;5.43;;;;;;;23.62;32.79;98642.63;4443715;32;20108;-83
2023/05/08 06:51:56;;;;;;;9.48;4.90;;;;;;;22.67;35.40;98642.72;4440868;32;20089;-83
2023/05/08 06:54:24;;;;;;;10.55;4.78;;;;;;;21.95;35.44;98645.09;4441930;32;20101;-82
2023/05/08 06:56:52;;;;;;;10.38;5.20;;;;;;;21.21;36.53;98651.78;4445226;32;20112;-83
2023/05/08 06:59:21;;;;;;;9.40;4.80;;;;;;;22.30;35.83;98647.53;4447634;32;20061;-83
2023/05/08 07:01:49;;;;;;;11.35;5.62;;;;;;;22.34;35.62;98650.75;4444441;32;20104;-83
2023/05/08 07:04:16;;;;;;;10.55;5.30;;;;;;;22.47;34.78;98644.37;4446283;32;20113;-84
2023/05/08 07:06:43;;;;;;;10.13;4.87;;;;;;;22.10;36.35;98649.12;4438113;32;20110;-84
2023/05/08 07:09:10;;;;;;;10.85;4.87;;;;;;;21.46;38.32;98646.31;4439079;32;20108;-83
2023/05/08 07:11:37;;;;;;;10.27;4.82;;;;;;;19.73;41.52;98649.56;4434255;32;149007;-84
2023/05/08 07:14:04;;;;;;;10.30;4.90;;;;;;;19.77;40.27;98651.84;4439140;32;20506;-83
2023/05/08 07:16:31;;;;;;;9.65;5.03;;;;;;;21.45;37.27;98649.06;4442568;32;20089;-84
2023/05/08 07:18:58;;;;;;;9.93;5.18;;;;;;;19.90;40.61;98654.44;4589802;26;20084;-84
2023/05/08 07:21:25;;;;;;;11.95;5.30;;;;;;;21.70;37.09;98661.97;4450757;32;20053;-83
2023/05/08 07:23:53;;;;;;;9.52;4.87;;;;;;;21.05;38.49;98655.56;4441695;32;20200;-83
2023/05/08 07:26:21;;;;;;;9.73;4.82;;;;;;;22.14;36.99;98655.00;4441390;32;20550;-82
2023/05/08 07:28:49;;;;;;;9.45;4.72;;;;;;;22.29;35.62;98661.63;4442091;32;20089;-83
2023/05/08 07:31:16;;;;;;;10.05;4.55;;;;;;;23.54;33.65;98653.78;4443311;32;20081;-83
2023/05/08 07:33:43;;;;;;;10.52;5.18;;;;;;;24.26;33.04;98651.94;4444072;32;20444;-83
2023/05/08 07:36:10;;;;;;;10.75;5.22;;;;;;;20.89;39.41;98644.56;4442855;32;20215;-83
2023/05/08 07:38:37;;;;;;;9.65;4.82;;;;;;;20.99;39.45;98658.66;4446558;32;20081;-83
2023/05/08 07:41:04;;;;;;;11.00;5.12;;;;;;;21.47;39.82;98662.91;4440865;32;20085;-83
2023/05/08 07:43:31;;;;;;;11.73;5.07;;;;;;;21.26;39.38;98660.13;4442442;32;20093;-84
2023/05/08 07:45:58;;;;;;;10.77;5.00;;;;;;;21.37;38.64;98653.13;4444133;32;20108;-82
2023/05/08 07:48:25;;;;;;;11.52;5.20;;;;;;;21.00;39.48;98654.22;4446212;32;20841;-85
2023/05/08 07:50:52;;;;;;;10.07;5.10;;;;;;;23.32;36.04;98646.91;4436412;32;20081;-85
2023/05/08 07:53:19;;;;;;;10.45;5.47;;;;;;;22.29;37.37;98650.28;4435157;32;20080;-85
2023/05/08 07:55:46;;;;;;;10.93;4.93;;;;;;;21.08;38.61;98650.09;4435069;32;20086;-85
2023/05/08 07:58:20;;;;;;;12.77;5.90;;;;;;;22.30;37.23;98658.03;4448002;32;20081;-84
2023/05/08 08:00:49;;;;;;;9.52;4.60;;;;;;;22.05;38.97;98653.91;4445839;32;20135;-85
2023/05/08 08:03:16;;;;;;;9.48;4.40;;;;;;;22.01;38.52;98656.88;4446074;32;20101;-85
2023/05/08 08:05:43;;;;;;;12.30;5.10;;;;;;;20.92;39.59;98653.97;4447338;32;20093;-84
2023/05/08 08:08:10;;;;;;;10.15;5.43;;;;;;;21.95;39.13;98660.84;4447678;32;20103;-84
2023/05/08 08:10:38;;;;;;;10.40;4.53;;;;;;;23.72;35.32;98661.94;4445706;32;20078;-85
2023/05/08 08:13:05;;;;;;;10.15;4.20;;;;;;;22.58;38.26;98655.81;4429688;32;20151;-85
2023/05/08 08:15:32;;;;;;;11.25;5.00;;;;;;;22.38;39.42;98653.00;4447689;32;20077;-86
2023/05/08 08:17:59;;;;;;;9.52;4.32;;;;;;;23.19;36.45;98651.56;4447766;32;20092;-85
2023/05/08 08:20:26;;;;;;;11.82;4.85;;;;;;;23.11;37.24;98647.91;4449387;32;20097;-84
2023/05/08 08:22:53;;;;;;;11.25;5.57;;;;;;;22.43;38.06;98656.06;4448472;32;20090;-84
2023/05/08 08:25:20;;;;;;;12.00;5.28;;;;;;;22.34;38.61;98651.59;4452726;32;20065;-85
2023/05/08 08:27:50;;;;;;;11.25;5.18;;;;;;;22.40;38.73;98660.75;4452696;32;20107;-85
2023/05/08 08:30:17;;;;;;;11.50;5.60;;;;;;;21.12;40.86;98657.72;4438507;32;20062;-84
2023/05/08 08:35:18;;;;;;;12.70;5.72;;;;;;;20.59;43.31;98655.53;4453699;32;20121;-84
2023/05/08 08:37:45;;;;;;;11.00;5.12;;;;;;;22.77;37.75;98656.78;4421666;32;20149;-87
2023/05/08 08:40:12;;;;;;;10.85;5.72;;;;;;;23.06;36.94;98646.47;4443747;32;20057;-85
2023/05/08 08:42:39;;;;;;;11.05;5.00;;;;;;;22.21;38.98;98650.91;4443455;32;20066;-86
2023/05/08 08:45:07;;;;;;;11.77;5.32;;;;;;;20.87;40.81;98651.72;4431346;32;20479;-86
2023/05/08 08:47:40;;;;;;;10.98;5.97;;;;;;;21.06;40.86;98659.87;4442750;32;20134;-87
2023/05/08 08:50:08;;;;;;;14.30;5.93;;;;;;;21.33;40.49;98658.72;4442626;32;20199;-86
2023/05/08 08:52:42;;;;;;;10.68;5.55;;;;;;;21.98;39.56;98657.97;4445362;32;20243;-83
2023/05/08 08:55:11;;;;;;;12.25;5.03;;;;;;;20.33;42.64;98672.31;4454192;32;20061;-84
2023/05/08 08:58:05;;;;;;;12.68;6.10;;;;;;;21.91;39.93;98669.94;4438169;32;20061;-83
2023/05/08 09:00:32;;;;;;;10.68;4.82;;;;;;;22.48;38.25;98660.97;4448932;32;20066;-84
2023/05/08 09:02:59;;;;;;;11.93;5.32;;;;;;;21.66;39.97;98666.59;4440246;32;20084;-84
2023/05/08 09:05:26;;;;;;;10.52;4.70;;;;;;;20.25;45.37;98667.63;4468630;26;20085;-83
2023/05/08 09:07:54;;;;;;;12.73;5.45;;;;;;;19.19;46.31;98655.03;4441954;32;20078;-82
2023/05/08 09:10:23;;;;;;;11.10;5.47;;;;;;;19.38;46.14;98655.44;4454938;32;20078;-82
2023/05/08 09:12:52;;;;;;;10.88;4.80;;;;;;;19.11;47.94;98662.56;4441900;32;20074;-84
2023/05/08 09:15:19;;;;;;;14.77;6.75;;;;;;;19.49;44.85;98654.72;4455007;32;20081;-82
2023/05/08 09:17:46;;;;;;;11.93;4.78;;;;;;;18.30;48.97;98653.06;4431205;32;20529;-80
2023/05/08 09:20:14;;;;;;;10.77;5.10;;;;;;;20.18;43.63;98663.78;4448197;32;20115;-80
2023/05/08 09:22:42;;;;;;;12.23;4.82;;;;;;;20.72;42.78;98664.16;4446304;32;20396;-80
2023/05/08 09:25:09;;;;;;;13.10;5.15;;;;;;;19.94;46.25;98664.59;4447060;32;20153;-81
2023/05/08 09:27:37;;;;;;;19.85;6.07;;;;;;;20.24;44.39;98671.19;4446325;32;20817;-81
2023/05/08 09:30:06;;;;;;;13.18;4.93;;;;;;;21.37;42.29;98665.41;4446481;32;20462;-81
2023/05/08 09:32:35;;;;;;;10.50;4.32;;;;;;;20.85;42.65;98665.91;4444297;32;20076;-83
2023/05/08 09:35:03;;;;;;;19.50;6.07;;;;;;;21.00;42.90;98664.72;4443510;32;20112;-84
2023/05/08 09:37:30;;;;;;;9.73;4.95;;;;;;;20.99;43.89;98661.28;4451143;32;20061;-84
2023/05/08 09:40:18;;;;;;;9.60;4.72;;;;;;;19.78;45.58;98664.00;4450499;32;20077;-84
2023/05/08 09:42:49;;;;;;;13.80;5.68;;;;;;;19.89;45.01;98666.72;4447069;32;20667;-84
2023/05/08 09:45:34;;;;;;;10.30;5.03;;;;;;;19.11;48.72;98659.94;4448915;32;20061;-84
2023/05/08 09:48:01;;;;;;;8.95;4.60;;;;;;;17.39;52.30;98662.22;4444246;32;20150;-85
2023/05/08 09:50:28;;;;;;;16.70;5.87;;;;;;;18.37;48.35;98663.94;4444231;32;20076;-85
2023/05/08 09:52:55;;;;;;;11.40;5.15;;;;;;;18.97;49.37;98663.50;4432530;32;20221;-84
2023/05/08 09:55:22;;;;;;;16.55;5.30;;;;;;;18.86;50.14;98660.75;4447690;32;20061;-85
2023/05/08 09:57:53;;;;;;;12.10;4.62;;;;;;;20.56;45.31;98675.91;4444672;32;20053;-85
2023/05/08 10:00:20;;;;;;;16.50;6.22;;;;;;;19.84;45.62;98666.19;4431247;32;20143;-85
2023/05/08 10:02:58;;;;;;;12.77;4.87;;;;;;;20.62;45.04;98665.78;4445647;32;20066;-85
2023/05/08 10:05:30;;;;;;;9.10;4.12;;;;;;;19.67;45.73;98669.13;4446194;32;20054;-83
2023/05/08 10:08:17;;;;;;;10.48;5.12;;;;;;;19.65;46.69;98664.00;4442151;32;20111;-84
2023/05/08 10:10:44;;;;;;;9.95;4.95;;;;;;;19.08;49.22;98671.44;4442881;32;20147;-84
2023/05/08 10:13:11;;;;;;;11.75;5.87;;;;;;;18.57;49.36;98668.72;4443781;32;20101;-84
2023/05/08 10:15:43;;;;;;;12.80;5.70;;;;;;;19.63;46.07;98665.91;4444075;32;20097;-85
2023/05/08 10:18:13;;;;;;;10.23;5.20;;;;;;;19.89;47.03;98666.72;4448111;32;20113;-83
2023/05/08 10:20:43;;;;;;;13.43;5.18;;;;;;;20.72;44.86;98666.78;4434062;32;20058;-84
2023/05/08 10:23:14;;;;;;;11.20;5.05;;;;;;;20.66;44.36;98661.19;4445547;32;20070;-84
2023/05/08 10:25:47;;;;;;;10.25;5.15;;;;;;;19.00;48.15;98668.50;4449378;32;20058;-84
2023/05/08 10:28:34;;;;;;;11.55;4.90;;;;;;;20.42;44.66;98667.28;4527869;26;20065;-84
2023/05/08 10:31:02;;;;;;;10.40;4.50;;;;;;;20.94;44.59;98659.94;4452109;32;20058;-85
2023/05/08 10:33:33;;;;;;;10.30;5.32;;;;;;;18.99;48.43;98657.22;4450119;32;20065;-85
2023/05/08 10:36:00;;;;;;;10.48;4.70;;;;;;;19.08;49.85;98656.59;4448947;32;20122;-86
2023/05/08 10:38:27;;;;;;;10.90;4.75;;;;;;;20.37;45.81;98663.28;4447738;32;20123;-84
2023/05/08 10:40:56;;;;;;;11.40;4.70;;;;;;;21.42;42.38;98665.06;4446788;32;20076;-84
2023/05/08 10:43:24;;;;;;;9.57;4.80;;;;;;;20.22;44.50;98660.00;4447618;32;20163;-84
2023/05/08 10:45:55;;;;;;;10.15;4.80;;;;;;;21.30;42.24;98661.59;4446386;32;20110;-84
2023/05/08 10:48:44;;;;;;;11.40;5.07;;;;;;;21.67;41.13;98668.28;4435821;32;20085;-83
2023/05/08 10:51:39;;;;;;;10.75;4.95;;;;;;;19.77;44.59;98658.84;4447270;32;20062;-85
2023/05/08 10:54:23;;;;;;;10.95;5.18;;;;;;;20.14;44.17;98660.53;4447039;32;20094;-85
2023/05/08 10:56:50;;;;;;;9.93;4.45;;;;;;;21.09;41.53;98656.16;4447985;32;20107;-86
2023/05/08 10:59:18;;;;;;;10.48;4.72;;;;;;;21.06;42.49;98656.41;4431358;32;20102;-85
2023/05/08 11:01:49;;;;;;;9.32;4.50;;;;;;;20.97;42.85;98652.69;4433196;32;20069;-85
2023/05/08 11:04:21;;;;;;;10.30;4.72;;;;;;;21.32;41.10;98662.31;4434237;32;20120;-85
2023/05/08 11:06:51;;;;;;;9.32;4.30;;;;;;;22.41;38.06;98658.00;4450898;32;20158;-85
2023/05/08 11:09:40;;;;;;;9.38;4.47;;;;;;;21.66;39.71;98663.16;4448822;32;20057;-85
2023/05/08 11:12:23;;;;;;;10.48;5.20;;;;;;;20.10;44.83;98661.72;4446688;32;20086;-84
2023/05/08 11:15:09;;;;;;;10.98;5.30;;;;;;;20.17;45.42;98652.47;4430842;32;20411;-85
2023/05/08 11:17:35;;;;;;;9.02;4.62;;;;;;;20.42;44.90;98656.81;4444621;32;20499;-85
2023/05/08 11:20:05;;;;;;;10.10;4.90;;;;;;;20.09;44.69;98656.56;4446839;32;20093;-85
2023/05/08 11:22:37;;;;;;;10.73;5.07;;;;;;;21.79;41.36;98655.12;4448206;32;20108;-85
2023/05/08 11:25:08;;;;;;;9.50;4.65;;;;;;;21.18;42.28;98652.84;4446759;32;20097;-85
2023/05/08 11:27:48;;;;;;;10.05;4.75;;;;;;;22.54;39.05;98652.56;4446675;32;20128;-85
2023/05/08 11:30:35;;;;;;;10.35;4.90;;;;;;;23.64;37.09;98651.22;4446332;32;20054;-86
2023/05/08 11:33:08;;;;;;;10.27;5.05;;;;;;;24.79;34.60;98647.94;4448067;32;20057;-85
2023/05/08 11:35:43;;;;;;;9.55;4.53;;;;;;;25.54;33.50;98653.34;4448969;32;20076;-86
2023/05/08 11:38:34;;;;;;;8.65;4.50;;;;;;;25.55;34.93;98642.63;4450967;32;20152;-85
2023/05/08 11:41:20;;;;;;;9.77;4.78;;;;;;;23.56;36.57;98638.69;4453993;32;20806;-86
2023/05/08 11:44:08;;;;;;;10.48;4.85;;;;;;;23.27;37.23;98632.44;4450915;32;20171;-86